createdAt,value
2022-08-22T00:02:29.991Z,2.90
2022-08-22T00:02:43.870Z,2.30
2022-08-22T00:02:46.808Z,2.70
2022-08-22T00:02:55.811Z,2.50
2022-08-22T00:05:06.303Z,3.40
2022-08-22T00:07:45.400Z,5.23
2022-08-22T00:10:24.972Z,4.43
2022-08-22T00:13:02.523Z,3.43
2022-08-22T00:15:42.943Z,3.03
2022-08-22T00:18:19.615Z,3.50
2022-08-22T00:21:00.644Z,3.53
2022-08-22T00:23:37.712Z,3.50
2022-08-22T00:26:16.737Z,2.97
2022-08-22T00:28:49.426Z,2.83
2022-08-22T00:31:25.721Z,3.27
2022-08-22T00:34:01.482Z,3.00
2022-08-22T00:36:35.100Z,2.87
2022-08-22T00:39:13.165Z,2.90
2022-08-22T00:42:11.315Z,2.90
2022-08-22T00:45:04.159Z,3.10
2022-08-22T00:48:00.975Z,2.93
2022-08-22T00:50:55.622Z,2.93
2022-08-22T00:53:50.384Z,3.00
2022-08-22T00:56:39.396Z,2.80
2022-08-22T00:59:40.532Z,2.90
2022-08-22T01:02:22.389Z,3.47
2022-08-22T01:05:18.892Z,3.00
2022-08-22T01:08:10.513Z,2.67
2022-08-22T01:10:59.492Z,2.90
2022-08-22T01:13:48.124Z,2.70
2022-08-22T01:16:28.662Z,2.67
2022-08-22T01:19:36.302Z,3.30
2022-08-22T01:22:28.347Z,4.37
2022-08-22T01:25:41.785Z,3.10
2022-08-22T01:28:39.684Z,3.87
2022-08-22T01:31:56.449Z,3.53
2022-08-22T01:35:00.101Z,3.40
2022-08-22T01:38:04.261Z,3.17
2022-08-22T01:41:02.671Z,3.30
2022-08-22T01:43:59.074Z,3.63
2022-08-22T01:46:39.967Z,3.60
2022-08-22T01:49:17.197Z,3.57
2022-08-22T01:51:53.029Z,3.33
2022-08-22T01:54:46.853Z,3.10
2022-08-22T01:57:16.864Z,3.30
2022-08-22T01:59:48.765Z,3.47
2022-08-22T02:02:49.124Z,3.30
2022-08-22T02:05:27.693Z,3.30
2022-08-22T02:08:03.343Z,3.30
2022-08-22T02:10:50.143Z,3.10
2022-08-22T02:13:31.662Z,3.17
2022-08-22T02:16:09.714Z,3.10
2022-08-22T02:18:57.970Z,3.43
2022-08-22T02:21:40.732Z,3.53
2022-08-22T02:24:23.633Z,3.30
2022-08-22T02:27:04.350Z,3.37
2022-08-22T02:29:39.854Z,3.60
2022-08-22T02:32:18.373Z,3.80
2022-08-22T02:34:58.864Z,3.93
2022-08-22T02:37:36.844Z,3.60
2022-08-22T02:40:13.749Z,3.60
2022-08-22T02:42:49.006Z,2.90
2022-08-22T02:45:25.924Z,3.43
2022-08-22T02:48:02.180Z,3.60
2022-08-22T02:50:38.303Z,3.50
2022-08-22T02:53:12.989Z,3.47
2022-08-22T02:55:51.622Z,3.70
2022-08-22T02:58:27.495Z,3.30
2022-08-22T03:01:22.230Z,3.60
2022-08-22T03:03:52.080Z,3.40
2022-08-22T03:06:39.373Z,3.53
2022-08-22T03:09:25.246Z,4.30
2022-08-22T03:12:06.382Z,4.10
2022-08-22T03:14:43.450Z,3.87
2022-08-22T03:17:18.214Z,3.87
2022-08-22T03:19:56.839Z,3.77
2022-08-22T03:22:37.990Z,3.90
2022-08-22T03:25:15.484Z,4.30
2022-08-22T03:27:51.972Z,3.97
2022-08-22T03:30:24.725Z,4.20
2022-08-22T03:32:59.255Z,3.80
2022-08-22T03:35:38.001Z,4.60
2022-08-22T03:38:23.474Z,4.40
2022-08-22T03:41:10.746Z,4.07
2022-08-22T03:44:04.808Z,4.27
2022-08-22T03:47:01.702Z,4.20
2022-08-22T03:50:01.103Z,4.37
2022-08-22T03:53:18.619Z,4.53
2022-08-22T03:56:21.245Z,4.30
2022-08-22T03:59:42.735Z,3.77
2022-08-22T04:02:42.793Z,4.40
2022-08-22T04:05:38.761Z,3.87
2022-08-22T04:08:44.003Z,4.07
2022-08-22T04:11:31.498Z,4.27
2022-08-22T04:14:24.579Z,4.47
2022-08-22T04:17:26.261Z,4.70
2022-08-22T04:20:37.868Z,4.60
2022-08-22T04:23:41.952Z,4.97
2022-08-22T04:26:15.778Z,4.80
2022-08-22T04:28:49.456Z,4.40
2022-08-22T04:31:23.829Z,4.17
2022-08-22T04:33:58.567Z,4.30
2022-08-22T04:36:35.133Z,4.03
2022-08-22T04:39:09.710Z,4.80
2022-08-22T04:41:47.001Z,4.80
2022-08-22T04:44:20.621Z,4.13
2022-08-22T04:46:55.943Z,4.30
2022-08-22T04:49:33.546Z,3.60
2022-08-22T04:52:12.233Z,3.70
2022-08-22T04:54:54.647Z,3.70
2022-08-22T04:57:32.368Z,4.20
2022-08-22T05:00:02.594Z,4.53
2022-08-22T05:02:31.285Z,3.63
2022-08-22T05:05:04.290Z,4.00
2022-08-22T05:07:37.867Z,4.53
2022-08-22T05:10:12.066Z,4.43
2022-08-22T05:12:49.612Z,4.40
2022-08-22T05:15:23.324Z,4.30
2022-08-22T05:17:54.041Z,4.37
2022-08-22T05:20:26.405Z,4.40
2022-08-22T05:23:17.091Z,4.07
2022-08-22T05:25:49.899Z,4.30
2022-08-22T05:28:27.172Z,4.20
2022-08-22T05:30:56.876Z,4.70
2022-08-22T05:33:31.236Z,4.77
2022-08-22T05:36:04.736Z,4.83
2022-08-22T05:38:40.531Z,4.73
2022-08-22T05:41:12.606Z,5.40
2022-08-22T05:43:44.417Z,4.80
2022-08-22T05:46:22.032Z,4.60
2022-08-22T05:48:59.973Z,5.17
2022-08-22T05:51:34.588Z,5.50
2022-08-22T05:54:13.403Z,5.20
2022-08-22T05:56:47.660Z,5.13
2022-08-22T05:59:25.977Z,5.13
2022-08-22T06:02:03.348Z,5.50
2022-08-22T06:04:38.413Z,5.60
2022-08-22T06:07:11.422Z,5.27
2022-08-22T06:10:09.291Z,5.63
2022-08-22T06:12:43.351Z,4.83
2022-08-22T06:15:16.972Z,5.50
2022-08-22T06:17:53.817Z,5.33
2022-08-22T06:20:25.364Z,4.97
2022-08-22T06:23:00.526Z,5.07
2022-08-22T06:25:33.612Z,5.33
2022-08-22T06:28:07.601Z,5.70
2022-08-22T06:30:38.088Z,5.57
2022-08-22T06:33:12.521Z,5.40
2022-08-22T06:36:02.543Z,5.20
2022-08-22T06:38:33.661Z,5.43
2022-08-22T06:41:09.065Z,5.13
2022-08-22T06:43:40.480Z,5.60
2022-08-22T06:46:10.102Z,5.17
2022-08-22T06:48:39.140Z,5.23
2022-08-22T06:51:09.513Z,5.23
2022-08-22T06:53:48.027Z,5.40
2022-08-22T06:56:25.470Z,5.20
2022-08-22T06:58:57.780Z,5.10
2022-08-22T07:01:31.405Z,4.87
2022-08-22T07:04:05.801Z,4.77
2022-08-22T07:06:38.091Z,5.10
2022-08-22T07:09:08.499Z,4.97
2022-08-22T07:11:42.422Z,5.00
2022-08-22T07:14:15.521Z,5.03
2022-08-22T07:16:49.824Z,4.50
2022-08-22T07:19:26.230Z,4.80
2022-08-22T07:21:57.978Z,4.63
2022-08-22T07:24:31.869Z,4.60
2022-08-22T07:27:12.733Z,4.63
2022-08-22T07:29:51.192Z,4.80
2022-08-22T07:32:25.899Z,4.70
2022-08-22T07:35:09.596Z,4.07
2022-08-22T07:37:53.110Z,4.60
2022-08-22T07:40:28.470Z,4.57
2022-08-22T07:43:04.566Z,3.90
2022-08-22T07:45:40.349Z,4.17
2022-08-22T07:48:25.995Z,4.10
2022-08-22T07:51:08.552Z,4.53
2022-08-22T07:53:41.766Z,4.70
2022-08-22T07:56:17.063Z,4.27
2022-08-22T07:58:49.930Z,4.57
2022-08-22T08:01:21.303Z,4.17
2022-08-22T08:03:54.417Z,4.50
2022-08-22T08:06:24.557Z,4.70
2022-08-22T08:08:55.492Z,4.63
2022-08-22T08:11:26.462Z,4.55
2022-08-22T08:14:02.730Z,4.70
2022-08-22T08:16:42.641Z,4.22
2022-08-22T08:19:13.628Z,3.72
2022-08-22T08:21:49.476Z,3.85
2022-08-22T08:24:23.680Z,4.43
2022-08-22T08:27:12.648Z,4.10
2022-08-22T08:29:46.555Z,3.90
2022-08-22T08:32:15.597Z,3.70
2022-08-22T08:34:45.421Z,4.22
2022-08-22T08:37:21.754Z,3.55
2022-08-22T08:39:52.696Z,3.92
2022-08-22T08:42:57.317Z,4.10
2022-08-22T08:45:47.890Z,4.20
2022-08-22T08:48:41.586Z,4.30
2022-08-22T08:51:24.155Z,4.30
2022-08-22T08:54:15.805Z,4.53
2022-08-22T08:56:54.260Z,4.53
2022-08-22T08:59:36.189Z,3.78
2022-08-22T09:02:44.435Z,4.30
2022-08-22T09:05:47.229Z,3.88
2022-08-22T09:08:42.332Z,3.15
2022-08-22T09:11:44.848Z,4.35
2022-08-22T09:14:26.673Z,4.30
2022-08-22T09:17:21.346Z,4.10
2022-08-22T09:20:17.998Z,4.50
2022-08-22T09:23:40.975Z,4.30
2022-08-22T09:26:18.430Z,4.13
2022-08-22T09:28:55.300Z,4.07
2022-08-22T09:31:48.119Z,3.85
2022-08-22T09:34:28.967Z,3.88
2022-08-22T09:37:20.780Z,3.80
2022-08-22T09:39:58.871Z,3.95
2022-08-22T09:42:37.308Z,3.78
2022-08-22T09:45:37.491Z,3.78
2022-08-22T09:48:13.119Z,4.20
2022-08-22T09:50:54.693Z,3.67
2022-08-22T09:53:45.215Z,3.08
2022-08-22T09:56:22.013Z,3.78
2022-08-22T09:59:03.489Z,3.60
2022-08-22T10:01:42.228Z,3.88
2022-08-22T10:04:46.021Z,3.35
2022-08-22T10:07:51.476Z,3.53
2022-08-22T10:10:40.967Z,3.10
2022-08-22T10:13:19.955Z,3.08
2022-08-22T10:15:57.581Z,3.25
2022-08-22T10:18:37.066Z,3.33
2022-08-22T10:21:21.499Z,3.40
2022-08-22T10:23:55.662Z,4.00
2022-08-22T10:26:38.608Z,3.92
2022-08-22T10:29:31.956Z,3.22
2022-08-22T10:32:14.537Z,3.45
2022-08-22T10:34:48.517Z,3.30
2022-08-22T10:37:25.418Z,4.20
2022-08-22T10:40:03.388Z,4.13
2022-08-22T10:42:38.119Z,3.80
2022-08-22T10:45:36.475Z,3.60
2022-08-22T10:48:29.000Z,3.63
2022-08-22T10:51:10.788Z,3.80
2022-08-22T10:53:58.851Z,3.85
2022-08-22T10:56:34.933Z,3.78
2022-08-22T10:59:22.888Z,3.65
2022-08-22T11:02:01.238Z,3.75
2022-08-22T11:04:49.424Z,3.35
2022-08-22T11:07:48.720Z,3.85
2022-08-22T11:10:26.711Z,3.47
2022-08-22T11:13:12.026Z,3.20
2022-08-22T11:16:01.069Z,3.63
2022-08-22T11:19:02.521Z,3.72
2022-08-22T11:21:45.961Z,3.53
2022-08-22T11:24:36.270Z,3.63
2022-08-22T11:27:20.973Z,3.70
2022-08-22T11:30:02.204Z,4.53
2022-08-22T11:32:38.790Z,3.42
2022-08-22T11:35:17.627Z,3.53
2022-08-22T11:37:54.865Z,3.67
2022-08-22T11:40:38.470Z,4.28
2022-08-22T11:43:21.785Z,3.53
2022-08-22T11:45:57.894Z,3.60
2022-08-22T11:48:38.289Z,3.70
2022-08-22T11:51:16.904Z,3.13
2022-08-22T11:54:03.107Z,3.65
2022-08-22T11:56:37.030Z,3.00
2022-08-22T11:59:20.933Z,2.80
2022-08-22T12:01:59.421Z,2.90
2022-08-22T12:04:34.979Z,2.65
2022-08-22T12:07:13.838Z,2.70
2022-08-22T12:09:50.872Z,2.80
2022-08-22T12:12:53.603Z,2.70
2022-08-22T12:15:25.989Z,2.70
2022-08-22T12:18:27.142Z,2.58
2022-08-22T12:21:38.552Z,2.63
2022-08-22T12:24:33.738Z,3.20
2022-08-22T12:27:31.066Z,2.78
2022-08-22T12:30:12.914Z,3.05
2022-08-22T12:33:13.127Z,2.90
2022-08-22T12:35:53.950Z,3.13
2022-08-22T12:38:39.471Z,2.70
2022-08-22T12:41:35.781Z,2.72
2022-08-22T12:44:22.399Z,2.50
2022-08-22T12:47:04.306Z,2.42
2022-08-22T12:49:44.984Z,2.40
2022-08-22T12:52:33.140Z,2.53
2022-08-22T12:55:28.618Z,3.13
2022-08-22T12:58:08.031Z,3.00
2022-08-22T13:00:41.602Z,2.92
2022-08-22T13:03:14.922Z,2.75
2022-08-22T13:05:56.738Z,2.78
2022-08-22T13:08:32.313Z,2.85
2022-08-22T13:11:04.908Z,3.10
2022-08-22T13:13:40.769Z,3.30
2022-08-22T13:16:11.951Z,3.00
2022-08-22T13:18:53.610Z,2.72
2022-08-22T13:21:31.587Z,3.05
2022-08-22T13:24:10.462Z,2.75
2022-08-22T13:26:49.229Z,2.65
2022-08-22T13:29:26.104Z,2.90
2022-08-22T13:32:00.455Z,2.80
2022-08-22T13:34:39.848Z,3.10
2022-08-22T13:37:16.735Z,2.80
2022-08-22T13:39:49.876Z,2.50
2022-08-22T13:42:30.199Z,2.70
2022-08-22T13:45:04.557Z,2.58
2022-08-22T13:47:39.554Z,2.40
2022-08-22T13:50:14.858Z,2.60
2022-08-22T13:52:52.466Z,2.70
2022-08-22T13:55:43.002Z,2.40
2022-08-22T13:58:25.170Z,2.55
2022-08-22T14:01:17.557Z,2.58
2022-08-22T14:03:50.220Z,2.50
2022-08-22T14:06:38.087Z,2.55
2022-08-22T14:09:29.303Z,2.50
2022-08-22T14:12:12.674Z,2.38
2022-08-22T14:14:50.111Z,2.10
2022-08-22T14:17:24.691Z,2.08
2022-08-22T14:20:01.450Z,2.08
2022-08-22T14:22:35.508Z,2.13
2022-08-22T14:25:09.233Z,2.00
2022-08-22T14:27:45.511Z,2.33
2022-08-22T14:30:19.054Z,2.50
2022-08-22T14:32:52.621Z,2.38
2022-08-22T14:35:37.415Z,2.45
2022-08-22T14:38:30.320Z,2.75
2022-08-22T14:41:03.857Z,2.47
2022-08-22T14:43:54.621Z,2.70
2022-08-22T14:46:30.057Z,3.75
2022-08-22T14:49:28.638Z,2.70
2022-08-22T14:52:09.160Z,2.30
2022-08-22T14:54:39.355Z,2.40
2022-08-22T14:57:20.065Z,2.38
2022-08-22T14:59:52.561Z,3.00
2022-08-22T15:02:29.044Z,2.30
2022-08-22T15:05:01.708Z,2.50
2022-08-22T15:07:34.188Z,4.63
2022-08-22T15:10:07.006Z,2.20
2022-08-22T15:12:48.345Z,2.45
2022-08-22T15:15:32.581Z,2.40
2022-08-22T15:18:19.946Z,2.40
2022-08-22T15:21:01.360Z,2.63
2022-08-22T15:23:32.029Z,2.38
2022-08-22T15:26:03.610Z,2.42
2022-08-22T15:28:52.271Z,2.50
2022-08-22T15:31:22.920Z,2.22
2022-08-22T15:33:53.317Z,2.33
2022-08-22T15:36:24.896Z,2.90
2022-08-22T15:38:58.344Z,2.28
2022-08-22T15:41:44.758Z,2.33
2022-08-22T15:44:32.981Z,2.17
2022-08-22T15:47:24.238Z,2.20
2022-08-22T15:50:00.832Z,2.35
2022-08-22T15:52:31.978Z,2.13
2022-08-22T15:55:23.677Z,2.60
2022-08-22T15:58:02.598Z,2.20
2022-08-22T16:00:35.609Z,2.00
2022-08-22T16:03:08.636Z,2.40
2022-08-22T16:05:54.541Z,2.40
2022-08-22T16:08:29.646Z,2.00
2022-08-22T16:11:33.288Z,2.60
2022-08-22T16:14:22.481Z,2.30
2022-08-22T16:16:59.878Z,2.38
2022-08-22T16:19:29.685Z,2.20
2022-08-22T16:22:16.618Z,2.40
2022-08-22T16:25:02.399Z,2.40
2022-08-22T16:27:31.627Z,2.30
2022-08-22T16:30:13.485Z,2.50
2022-08-22T16:32:52.553Z,2.50
2022-08-22T16:35:58.472Z,2.50
2022-08-22T16:38:37.523Z,2.53
2022-08-22T16:41:06.485Z,2.50
2022-08-22T16:43:35.161Z,2.08
2022-08-22T16:46:33.166Z,2.53
2022-08-22T16:49:05.906Z,2.53
2022-08-22T16:51:34.959Z,2.40
2022-08-22T16:54:11.209Z,2.45
2022-08-22T16:57:07.765Z,2.30
2022-08-22T17:00:04.744Z,2.25
2022-08-22T17:02:52.815Z,2.70
2022-08-22T17:05:51.696Z,2.60
2022-08-22T17:08:33.584Z,2.85
2022-08-22T17:11:20.077Z,2.97
2022-08-22T17:14:00.256Z,3.00
2022-08-22T17:16:41.409Z,2.47
2022-08-22T17:19:27.232Z,2.60
2022-08-22T17:22:00.006Z,2.72
2022-08-22T17:24:38.262Z,2.45
2022-08-22T17:27:31.057Z,2.78
2022-08-22T17:30:09.387Z,2.90
2022-08-22T17:32:57.178Z,2.95
2022-08-22T17:35:45.640Z,3.00
2022-08-22T17:38:24.527Z,3.00
2022-08-22T17:41:04.084Z,2.80
2022-08-22T17:43:50.077Z,2.95
2022-08-22T17:46:33.414Z,2.90
2022-08-22T17:49:24.877Z,3.00
2022-08-22T17:51:58.949Z,2.90
2022-08-22T17:54:36.230Z,3.15
2022-08-22T17:57:10.254Z,3.08
2022-08-22T17:59:47.981Z,2.90
2022-08-22T18:02:20.205Z,3.25
2022-08-22T18:04:59.187Z,3.00
2022-08-22T18:07:50.554Z,3.13
2022-08-22T18:10:38.451Z,3.17
2022-08-22T18:13:11.336Z,3.33
2022-08-22T18:15:48.484Z,3.58
2022-08-22T18:18:30.337Z,3.70
2022-08-22T18:21:03.792Z,3.67
2022-08-22T18:23:40.589Z,3.80
2022-08-22T18:26:21.480Z,4.15
2022-08-22T18:28:56.970Z,4.80
2022-08-22T18:31:38.801Z,3.78
2022-08-22T18:34:16.936Z,3.60
2022-08-22T18:36:54.863Z,3.67
2022-08-22T18:39:29.148Z,3.90
2022-08-22T18:42:05.679Z,3.63
2022-08-22T18:44:39.920Z,3.65
2022-08-22T18:47:16.389Z,3.75
2022-08-22T18:49:54.377Z,4.00
2022-08-22T18:52:40.592Z,3.75
2022-08-22T18:55:50.600Z,4.00
2022-08-22T18:58:41.902Z,4.00
2022-08-22T19:01:42.156Z,5.03
2022-08-22T19:04:42.542Z,5.10
2022-08-22T19:07:43.339Z,5.30
2022-08-22T19:10:37.145Z,4.97
2022-08-22T19:13:26.342Z,5.03
2022-08-22T19:16:12.771Z,4.80
2022-08-22T19:18:45.570Z,4.30
2022-08-22T19:21:38.025Z,4.78
2022-08-22T19:24:10.055Z,4.38
2022-08-22T19:26:44.682Z,4.45
2022-08-22T19:29:51.110Z,4.50
2022-08-22T19:32:59.300Z,4.25
2022-08-22T19:35:35.963Z,4.20
2022-08-22T19:38:07.453Z,4.10
2022-08-22T19:40:56.178Z,4.35
2022-08-22T19:43:34.295Z,4.07
2022-08-22T19:46:06.771Z,4.43
2022-08-22T19:48:45.211Z,4.20
2022-08-22T19:51:26.366Z,3.70
2022-08-22T19:54:19.524Z,4.10
2022-08-22T19:57:02.797Z,4.40
2022-08-22T19:59:51.342Z,4.25
2022-08-22T20:02:35.290Z,4.30
2022-08-22T20:05:20.319Z,3.78
2022-08-22T20:08:19.730Z,3.95
2022-08-22T20:11:01.923Z,4.00
2022-08-22T20:13:34.230Z,3.90
2022-08-22T20:16:16.206Z,3.90
2022-08-22T20:19:18.294Z,4.20
2022-08-22T20:21:55.198Z,4.25
2022-08-22T20:24:32.345Z,4.22
2022-08-22T20:27:14.577Z,3.95
2022-08-22T20:29:52.602Z,4.50
2022-08-22T20:32:24.648Z,3.97
2022-08-22T20:34:58.322Z,5.00
2022-08-22T20:38:02.822Z,4.00
2022-08-22T20:40:55.095Z,3.92
2022-08-22T20:43:22.836Z,4.18
2022-08-22T20:46:00.390Z,3.97
2022-08-22T20:48:41.758Z,3.73
2022-08-22T20:51:14.040Z,3.90
2022-08-22T20:53:43.166Z,3.83
2022-08-22T20:56:12.280Z,3.95
2022-08-22T20:58:48.391Z,4.00
2022-08-22T21:01:18.921Z,4.90
2022-08-22T21:03:50.475Z,4.10
2022-08-22T21:06:22.672Z,3.93
2022-08-22T21:09:12.047Z,3.88
2022-08-22T21:11:51.083Z,4.20
2022-08-22T21:14:22.862Z,4.10
2022-08-22T21:16:51.866Z,4.10
2022-08-22T21:19:25.357Z,3.97
2022-08-22T21:22:12.361Z,4.10
2022-08-22T21:24:41.400Z,3.83
2022-08-22T21:27:14.355Z,4.17
2022-08-22T21:29:48.040Z,4.33
2022-08-22T21:32:31.291Z,4.53
2022-08-22T21:35:00.479Z,4.30
2022-08-22T21:37:37.103Z,4.50
2022-08-22T21:40:12.103Z,4.57
2022-08-22T21:42:45.724Z,4.17
2022-08-22T21:45:29.261Z,4.43
2022-08-22T21:47:58.749Z,4.20
2022-08-22T21:50:34.874Z,4.77
2022-08-22T21:53:10.152Z,4.40
2022-08-22T21:55:44.594Z,4.30
2022-08-22T21:58:35.621Z,4.70
2022-08-22T22:01:28.811Z,4.60
2022-08-22T22:03:59.216Z,4.50
2022-08-22T22:06:28.605Z,5.27
2022-08-22T22:08:58.047Z,5.10
2022-08-22T22:11:26.515Z,5.10
2022-08-22T22:13:55.042Z,5.07
2022-08-22T22:16:28.053Z,5.10
2022-08-22T22:18:57.266Z,4.80
2022-08-22T22:21:25.927Z,5.00
2022-08-22T22:23:54.538Z,4.93
2022-08-22T22:26:28.745Z,5.40
2022-08-22T22:28:58.767Z,4.90
2022-08-22T22:31:28.770Z,4.80
2022-08-22T22:33:57.403Z,5.03
2022-08-22T22:36:27.916Z,4.90
2022-08-22T22:38:56.926Z,5.20
2022-08-22T22:41:25.591Z,4.97
2022-08-22T22:43:55.056Z,5.00
2022-08-22T22:46:26.866Z,4.90
2022-08-22T22:48:57.840Z,4.80
2022-08-22T22:51:26.442Z,5.03
2022-08-22T22:53:56.809Z,4.90
2022-08-22T22:56:26.317Z,4.63
2022-08-22T22:59:00.605Z,4.70
2022-08-22T23:01:32.070Z,4.90
2022-08-22T23:04:05.396Z,5.23
2022-08-22T23:06:35.610Z,5.10
2022-08-22T23:09:04.264Z,5.10
2022-08-22T23:11:32.724Z,4.87
2022-08-22T23:14:03.676Z,4.77
2022-08-22T23:16:37.111Z,5.00
2022-08-22T23:19:10.992Z,5.13
2022-08-22T23:21:39.584Z,4.87
2022-08-22T23:24:08.214Z,5.00
2022-08-22T23:26:37.082Z,4.93
2022-08-22T23:29:06.809Z,5.13
2022-08-22T23:31:37.756Z,4.93
2022-08-22T23:34:10.866Z,5.00
2022-08-22T23:36:42.264Z,5.10
2022-08-22T23:39:11.322Z,5.03
2022-08-22T23:41:40.873Z,5.10
2022-08-22T23:44:13.487Z,5.33
2022-08-22T23:46:43.213Z,5.23
2022-08-22T23:49:13.917Z,4.77
2022-08-22T23:51:43.586Z,5.00
2022-08-22T23:54:12.898Z,5.10
2022-08-22T23:56:43.667Z,4.87
2022-08-22T23:59:15.560Z,5.10
